sensor_id;sensor_type;location;lat;lon;timestamp;P1;durP1;ratioP1;P2;durP2;ratioP2
6941;SDS011;3510;43.200;27.920;2023-02-01T09:37:46;8.07;;;7.37;;
6941;SDS011;3510;43.200;27.920;2023-02-01T09:40:14;9.13;;;7.33;;
6941;SDS011;3510;43.200;27.920;2023-02-01T09:43:00;7.90;;;7.10;;
6941;SDS011;3510;43.200;27.920;2023-02-01T09:48:34;7.20;;;6.50;;
6941;SDS011;3510;43.200;27.920;2023-02-01T09:51:07;7.47;;;5.87;;
6941;SDS011;3510;43.200;27.920;2023-02-01T09:53:47;6.80;;;6.20;;
6941;SDS011;3510;43.200;27.920;2023-02-01T09:56:21;6.53;;;6.00;;
6941;SDS011;3510;43.200;27.920;2023-02-01T09:58:55;5.60;;;4.90;;
6941;SDS011;3510;43.200;27.920;2023-02-01T10:01:28;9.33;;;5.13;;
6941;SDS011;3510;43.200;27.920;2023-02-01T10:03:57;5.30;;;4.80;;
6941;SDS011;3510;43.200;27.920;2023-02-01T10:06:33;5.50;;;5.00;;
6941;SDS011;3510;43.200;27.920;2023-02-01T10:09:16;5.13;;;4.73;;
6941;SDS011;3510;43.200;27.920;2023-02-01T10:12:04;5.73;;;4.30;;
6941;SDS011;3510;43.200;27.920;2023-02-01T10:14:56;4.67;;;4.10;;
6941;SDS011;3510;43.200;27.920;2023-02-01T10:17:33;5.00;;;4.50;;
6941;SDS011;3510;43.200;27.920;2023-02-01T10:20:18;5.40;;;5.00;;
6941;SDS011;3510;43.200;27.920;2023-02-01T10:22:53;4.77;;;4.30;;
6941;SDS011;3510;43.200;27.920;2023-02-01T10:25:35;6.27;;;5.07;;
6941;SDS011;3510;43.200;27.920;2023-02-01T10:28:08;4.97;;;4.47;;
6941;SDS011;3510;43.200;27.920;2023-02-01T10:30:43;5.37;;;4.63;;
6941;SDS011;3510;43.200;27.920;2023-02-01T10:33:16;3.83;;;3.50;;
6941;SDS011;3510;43.200;27.920;2023-02-01T10:35:48;3.27;;;3.00;;
6941;SDS011;3510;43.200;27.920;2023-02-01T10:38:23;5.57;;;3.90;;
6941;SDS011;3510;43.200;27.920;2023-02-01T10:40:56;5.77;;;5.00;;
6941;SDS011;3510;43.200;27.920;2023-02-01T10:43:28;6.77;;;6.13;;
6941;SDS011;3510;43.200;27.920;2023-02-01T10:45:56;5.53;;;5.13;;
6941;SDS011;3510;43.200;27.920;2023-02-01T10:48:24;5.43;;;4.00;;
6941;SDS011;3510;43.200;27.920;2023-02-01T10:50:53;3.83;;;3.50;;
6941;SDS011;3510;43.200;27.920;2023-02-01T10:53:24;3.40;;;3.10;;
6941;SDS011;3510;43.200;27.920;2023-02-01T10:55:57;5.37;;;3.93;;
6941;SDS011;3510;43.200;27.920;2023-02-01T10:58:32;4.30;;;3.90;;
6941;SDS011;3510;43.200;27.920;2023-02-01T11:01:02;3.33;;;3.03;;
6941;SDS011;3510;43.200;27.920;2023-02-01T11:03:32;4.73;;;4.23;;
6941;SDS011;3510;43.200;27.920;2023-02-01T11:06:01;4.60;;;3.40;;
6941;SDS011;3510;43.200;27.920;2023-02-01T11:08:45;2.80;;;2.60;;
6941;SDS011;3510;43.200;27.920;2023-02-01T11:11:15;9.70;;;4.47;;
6941;SDS011;3510;43.200;27.920;2023-02-01T11:13:42;4.40;;;4.03;;
6941;SDS011;3510;43.200;27.920;2023-02-01T11:16:12;4.40;;;3.57;;
6941;SDS011;3510;43.200;27.920;2023-02-01T11:18:41;4.77;;;3.60;;
6941;SDS011;3510;43.200;27.920;2023-02-01T11:21:08;5.30;;;3.63;;
6941;SDS011;3510;43.200;27.920;2023-02-01T11:23:41;2.73;;;2.53;;
6941;SDS011;3510;43.200;27.920;2023-02-01T11:26:12;8.50;;;2.67;;
6941;SDS011;3510;43.200;27.920;2023-02-01T11:28:47;3.97;;;3.07;;
6941;SDS011;3510;43.200;27.920;2023-02-01T11:31:20;3.70;;;2.60;;
6941;SDS011;3510;43.200;27.920;2023-02-01T11:33:50;10.90;;;4.13;;
6941;SDS011;3510;43.200;27.920;2023-02-01T11:36:21;7.17;;;3.10;;
6941;SDS011;3510;43.200;27.920;2023-02-01T11:38:53;5.40;;;3.77;;
6941;SDS011;3510;43.200;27.920;2023-02-01T11:41:34;5.23;;;2.67;;
6941;SDS011;3510;43.200;27.920;2023-02-01T11:44:18;2.87;;;2.67;;
6941;SDS011;3510;43.200;27.920;2023-02-01T11:46:48;3.37;;;2.93;;
6941;SDS011;3510;43.200;27.920;2023-02-01T11:49:20;8.73;;;4.80;;
6941;SDS011;3510;43.200;27.920;2023-02-01T11:51:52;4.93;;;3.30;;
6941;SDS011;3510;43.200;27.920;2023-02-01T11:54:30;3.73;;;2.53;;
6941;SDS011;3510;43.200;27.920;2023-02-01T11:57:17;2.03;;;1.93;;
6941;SDS011;3510;43.200;27.920;2023-02-01T12:00:13;4.83;;;2.47;;
6941;SDS011;3510;43.200;27.920;2023-02-01T12:03:10;2.30;;;2.20;;
6941;SDS011;3510;43.200;27.920;2023-02-01T12:05:57;2.20;;;2.10;;
6941;SDS011;3510;43.200;27.920;2023-02-01T12:08:36;1.80;;;1.70;;
6941;SDS011;3510;43.200;27.920;2023-02-01T12:11:31;2.37;;;2.17;;
6941;SDS011;3510;43.200;27.920;2023-02-01T12:14:14;4.20;;;1.77;;
6941;SDS011;3510;43.200;27.920;2023-02-01T12:16:56;2.20;;;2.00;;
6941;SDS011;3510;43.200;27.920;2023-02-01T12:19:50;4.33;;;2.10;;
6941;SDS011;3510;43.200;27.920;2023-02-01T12:22:34;3.43;;;2.33;;
6941;SDS011;3510;43.200;27.920;2023-02-01T12:25:23;3.67;;;2.37;;
6941;SDS011;3510;43.200;27.920;2023-02-01T12:28:04;6.23;;;2.20;;
6941;SDS011;3510;43.200;27.920;2023-02-01T12:30:48;2.80;;;2.60;;
6941;SDS011;3510;43.200;27.920;2023-02-01T12:33:46;6.53;;;2.67;;
6941;SDS011;3510;43.200;27.920;2023-02-01T12:36:30;3.00;;;2.50;;
6941;SDS011;3510;43.200;27.920;2023-02-01T12:39:05;7.27;;;2.50;;
6941;SDS011;3510;43.200;27.920;2023-02-01T12:41:47;6.70;;;3.13;;
6941;SDS011;3510;43.200;27.920;2023-02-01T12:44:34;4.00;;;3.60;;
6941;SDS011;3510;43.200;27.920;2023-02-01T12:47:14;3.97;;;3.63;;
6941;SDS011;3510;43.200;27.920;2023-02-01T12:49:53;3.47;;;3.00;;
6941;SDS011;3510;43.200;27.920;2023-02-01T12:52:27;3.73;;;3.37;;
6941;SDS011;3510;43.200;27.920;2023-02-01T12:55:04;2.87;;;2.67;;
6941;SDS011;3510;43.200;27.920;2023-02-01T12:57:37;2.93;;;1.90;;
6941;SDS011;3510;43.200;27.920;2023-02-01T13:00:13;2.90;;;2.33;;
6941;SDS011;3510;43.200;27.920;2023-02-01T13:02:49;4.63;;;2.10;;
6941;SDS011;3510;43.200;27.920;2023-02-01T13:05:26;2.03;;;1.93;;
6941;SDS011;3510;43.200;27.920;2023-02-01T13:07:57;2.70;;;2.50;;
6941;SDS011;3510;43.200;27.920;2023-02-01T13:10:30;1.83;;;1.73;;
6941;SDS011;3510;43.200;27.920;2023-02-01T13:13:03;1.93;;;1.83;;
6941;SDS011;3510;43.200;27.920;2023-02-01T13:15:39;1.50;;;1.40;;
6941;SDS011;3510;43.200;27.920;2023-02-01T13:18:11;2.20;;;2.10;;
6941;SDS011;3510;43.200;27.920;2023-02-01T13:21:01;2.80;;;2.60;;
6941;SDS011;3510;43.200;27.920;2023-02-01T13:23:33;2.97;;;1.53;;
6941;SDS011;3510;43.200;27.920;2023-02-01T13:26:03;2.20;;;2.00;;
6941;SDS011;3510;43.200;27.920;2023-02-01T13:28:31;1.90;;;1.57;;
6941;SDS011;3510;43.200;27.920;2023-02-01T13:40:10;2.80;;;2.60;;
6941;SDS011;3510;43.200;27.920;2023-02-01T13:42:51;2.30;;;2.10;;
6941;SDS011;3510;43.200;27.920;2023-02-01T13:45:21;1.60;;;1.50;;
6941;SDS011;3510;43.200;27.920;2023-02-01T13:47:51;4.00;;;2.33;;
6941;SDS011;3510;43.200;27.920;2023-02-01T13:50:22;3.73;;;1.87;;
6941;SDS011;3510;43.200;27.920;2023-02-01T13:52:55;3.10;;;2.90;;
6941;SDS011;3510;43.200;27.920;2023-02-01T13:55:32;3.30;;;3.00;;
6941;SDS011;3510;43.200;27.920;2023-02-01T13:58:05;2.50;;;2.30;;
6941;SDS011;3510;43.200;27.920;2023-02-01T14:00:44;2.30;;;1.73;;
6941;SDS011;3510;43.200;27.920;2023-02-01T14:03:13;3.53;;;2.23;;
6941;SDS011;3510;43.200;27.920;2023-02-01T14:12:04;2.00;;;1.90;;
6941;SDS011;3510;43.200;27.920;2023-02-01T14:15:20;5.37;;;2.80;;
6941;SDS011;3510;43.200;27.920;2023-02-01T14:18:05;2.50;;;2.33;;
6941;SDS011;3510;43.200;27.920;2023-02-01T14:21:25;2.30;;;2.10;;
6941;SDS011;3510;43.200;27.920;2023-02-01T14:24:15;1.53;;;1.40;;
6941;SDS011;3510;43.200;27.920;2023-02-01T14:27:01;3.07;;;2.40;;
6941;SDS011;3510;43.200;27.920;2023-02-01T14:29:44;4.13;;;2.73;;
6941;SDS011;3510;43.200;27.920;2023-02-01T14:32:20;9.07;;;3.53;;
6941;SDS011;3510;43.200;27.920;2023-02-01T14:35:05;4.60;;;3.70;;
6941;SDS011;3510;43.200;27.920;2023-02-01T14:37:35;3.67;;;3.37;;
6941;SDS011;3510;43.200;27.920;2023-02-01T14:40:06;3.50;;;3.20;;
6941;SDS011;3510;43.200;27.920;2023-02-01T14:42:45;4.97;;;2.97;;
6941;SDS011;3510;43.200;27.920;2023-02-01T14:51:10;4.43;;;3.40;;
6941;SDS011;3510;43.200;27.920;2023-02-01T14:53:41;5.97;;;3.20;;
6941;SDS011;3510;43.200;27.920;2023-02-01T14:56:11;2.90;;;2.70;;
6941;SDS011;3510;43.200;27.920;2023-02-01T14:58:55;3.23;;;3.03;;
6941;SDS011;3510;43.200;27.920;2023-02-01T15:01:26;4.63;;;3.00;;
6941;SDS011;3510;43.200;27.920;2023-02-01T15:03:56;2.87;;;2.67;;
6941;SDS011;3510;43.200;27.920;2023-02-01T15:06:30;3.20;;;2.83;;
6941;SDS011;3510;43.200;27.920;2023-02-01T15:09:00;10.10;;;7.77;;
6941;SDS011;3510;43.200;27.920;2023-02-01T15:11:30;4.80;;;4.40;;
6941;SDS011;3510;43.200;27.920;2023-02-01T15:13:59;5.77;;;5.20;;
6941;SDS011;3510;43.200;27.920;2023-02-01T15:16:27;20.53;;;9.53;;
6941;SDS011;3510;43.200;27.920;2023-02-01T15:21:46;8.73;;;4.53;;
6941;SDS011;3510;43.200;27.920;2023-02-01T15:24:20;9.47;;;4.50;;
6941;SDS011;3510;43.200;27.920;2023-02-01T15:26:50;5.50;;;4.63;;
6941;SDS011;3510;43.200;27.920;2023-02-01T15:29:27;7.40;;;4.97;;
6941;SDS011;3510;43.200;27.920;2023-02-01T15:31:57;12.03;;;10.27;;
6941;SDS011;3510;43.200;27.920;2023-02-01T15:34:45;4.57;;;4.13;;
6941;SDS011;3510;43.200;27.920;2023-02-01T15:37:16;11.07;;;8.80;;
6941;SDS011;3510;43.200;27.920;2023-02-01T15:42:33;10.00;;;9.00;;
6941;SDS011;3510;43.200;27.920;2023-02-01T15:47:46;10.47;;;9.07;;
6941;SDS011;3510;43.200;27.920;2023-02-01T15:50:17;11.37;;;8.63;;
6941;SDS011;3510;43.200;27.920;2023-02-01T15:52:53;21.57;;;13.67;;
6941;SDS011;3510;43.200;27.920;2023-02-01T15:55:22;8.77;;;6.00;;
6941;SDS011;3510;43.200;27.920;2023-02-01T16:16:34;10.53;;;5.97;;
6941;SDS011;3510;43.200;27.920;2023-02-01T16:19:01;9.30;;;6.37;;
6941;SDS011;3510;43.200;27.920;2023-02-01T16:21:28;7.53;;;6.33;;
6941;SDS011;3510;43.200;27.920;2023-02-01T16:23:55;9.97;;;6.20;;
6941;SDS011;3510;43.200;27.920;2023-02-01T16:26:24;7.50;;;6.33;;
6941;SDS011;3510;43.200;27.920;2023-02-01T16:28:52;12.60;;;8.70;;
6941;SDS011;3510;43.200;27.920;2023-02-01T16:31:23;12.47;;;10.03;;
6941;SDS011;3510;43.200;27.920;2023-02-01T16:33:55;9.50;;;8.33;;
6941;SDS011;3510;43.200;27.920;2023-02-01T16:36:25;9.47;;;7.00;;
6941;SDS011;3510;43.200;27.920;2023-02-01T16:38:57;7.43;;;6.83;;
6941;SDS011;3510;43.200;27.920;2023-02-01T16:41:25;10.87;;;6.90;;
6941;SDS011;3510;43.200;27.920;2023-02-01T16:43:54;6.90;;;6.20;;
6941;SDS011;3510;43.200;27.920;2023-02-01T16:46:22;15.47;;;9.13;;
6941;SDS011;3510;43.200;27.920;2023-02-01T16:48:51;16.73;;;11.33;;
6941;SDS011;3510;43.200;27.920;2023-02-01T16:51:23;16.33;;;10.67;;
6941;SDS011;3510;43.200;27.920;2023-02-01T16:53:52;19.30;;;12.07;;
6941;SDS011;3510;43.200;27.920;2023-02-01T16:56:21;20.47;;;11.80;;
6941;SDS011;3510;43.200;27.920;2023-02-01T16:58:50;32.77;;;17.83;;
6941;SDS011;3510;43.200;27.920;2023-02-01T17:01:19;17.87;;;12.27;;
6941;SDS011;3510;43.200;27.920;2023-02-01T17:03:47;31.77;;;20.17;;
6941;SDS011;3510;43.200;27.920;2023-02-01T17:06:17;18.17;;;12.80;;
6941;SDS011;3510;43.200;27.920;2023-02-01T17:08:47;18.00;;;13.03;;
6941;SDS011;3510;43.200;27.920;2023-02-01T17:11:17;17.33;;;11.57;;
6941;SDS011;3510;43.200;27.920;2023-02-01T17:13:44;14.40;;;11.27;;
6941;SDS011;3510;43.200;27.920;2023-02-01T17:16:21;18.80;;;13.67;;
6941;SDS011;3510;43.200;27.920;2023-02-01T17:18:56;20.57;;;14.87;;
6941;SDS011;3510;43.200;27.920;2023-02-01T17:21:34;16.27;;;11.53;;
6941;SDS011;3510;43.200;27.920;2023-02-01T17:24:09;14.70;;;11.43;;
6941;SDS011;3510;43.200;27.920;2023-02-01T17:26:39;17.43;;;10.73;;
6941;SDS011;3510;43.200;27.920;2023-02-01T17:29:07;8.83;;;7.37;;
6941;SDS011;3510;43.200;27.920;2023-02-01T17:31:36;14.63;;;8.47;;
6941;SDS011;3510;43.200;27.920;2023-02-01T17:34:05;16.43;;;11.80;;
6941;SDS011;3510;43.200;27.920;2023-02-01T17:36:34;18.77;;;10.70;;
6941;SDS011;3510;43.200;27.920;2023-02-01T17:39:03;16.00;;;9.20;;
6941;SDS011;3510;43.200;27.920;2023-02-01T17:41:31;15.77;;;8.77;;
6941;SDS011;3510;43.200;27.920;2023-02-01T17:43:59;14.30;;;8.80;;
6941;SDS011;3510;43.200;27.920;2023-02-01T17:46:27;20.37;;;13.13;;
6941;SDS011;3510;43.200;27.920;2023-02-01T17:48:56;21.17;;;13.17;;
6941;SDS011;3510;43.200;27.920;2023-02-01T17:51:26;20.37;;;12.27;;
6941;SDS011;3510;43.200;27.920;2023-02-01T17:53:56;17.83;;;11.27;;
6941;SDS011;3510;43.200;27.920;2023-02-01T17:56:26;26.43;;;13.60;;
6941;SDS011;3510;43.200;27.920;2023-02-01T17:58:54;23.37;;;15.23;;
6941;SDS011;3510;43.200;27.920;2023-02-01T18:01:24;24.00;;;17.20;;
6941;SDS011;3510;43.200;27.920;2023-02-01T18:03:53;22.77;;;18.00;;
6941;SDS011;3510;43.200;27.920;2023-02-01T18:06:22;29.17;;;19.20;;
6941;SDS011;3510;43.200;27.920;2023-02-01T18:27:50;32.03;;;21.47;;
6941;SDS011;3510;43.200;27.920;2023-02-01T18:30:34;33.03;;;22.73;;
6941;SDS011;3510;43.200;27.920;2023-02-01T18:33:01;39.87;;;23.63;;
6941;SDS011;3510;43.200;27.920;2023-02-01T18:35:30;35.53;;;24.97;;
6941;SDS011;3510;43.200;27.920;2023-02-01T18:38:11;36.77;;;23.80;;
6941;SDS011;3510;43.200;27.920;2023-02-01T18:46:49;51.07;;;32.07;;
6941;SDS011;3510;43.200;27.920;2023-02-01T18:49:30;37.07;;;23.17;;
6941;SDS011;3510;43.200;27.920;2023-02-01T18:52:11;39.33;;;27.30;;
6941;SDS011;3510;43.200;27.920;2023-02-01T18:54:53;45.50;;;26.10;;
6941;SDS011;3510;43.200;27.920;2023-02-01T18:57:20;34.37;;;21.63;;
6941;SDS011;3510;43.200;27.920;2023-02-01T18:59:48;33.87;;;19.60;;
6941;SDS011;3510;43.200;27.920;2023-02-01T19:02:16;33.57;;;20.87;;
6941;SDS011;3510;43.200;27.920;2023-02-01T19:04:57;31.00;;;20.23;;
6941;SDS011;3510;43.200;27.920;2023-02-01T19:07:39;29.57;;;19.57;;
6941;SDS011;3510;43.200;27.920;2023-02-01T19:10:21;37.90;;;24.80;;
6941;SDS011;3510;43.200;27.920;2023-02-01T19:13:03;32.80;;;22.27;;
6941;SDS011;3510;43.200;27.920;2023-02-01T19:15:44;35.67;;;21.73;;
6941;SDS011;3510;43.200;27.920;2023-02-01T19:21:37;36.53;;;24.50;;
6941;SDS011;3510;43.200;27.920;2023-02-01T19:24:05;39.43;;;26.47;;
6941;SDS011;3510;43.200;27.920;2023-02-01T19:26:32;29.17;;;21.10;;
6941;SDS011;3510;43.200;27.920;2023-02-01T19:29:00;32.87;;;23.40;;
6941;SDS011;3510;43.200;27.920;2023-02-01T19:31:30;39.00;;;25.80;;
6941;SDS011;3510;43.200;27.920;2023-02-01T19:34:02;34.57;;;22.03;;
6941;SDS011;3510;43.200;27.920;2023-02-01T19:36:29;36.77;;;25.13;;
6941;SDS011;3510;43.200;27.920;2023-02-01T19:38:58;38.37;;;20.80;;
6941;SDS011;3510;43.200;27.920;2023-02-01T19:41:26;32.93;;;21.77;;
6941;SDS011;3510;43.200;27.920;2023-02-01T19:43:53;31.67;;;22.13;;
6941;SDS011;3510;43.200;27.920;2023-02-01T19:46:23;29.83;;;19.17;;
6941;SDS011;3510;43.200;27.920;2023-02-01T19:48:56;26.03;;;18.53;;
6941;SDS011;3510;43.200;27.920;2023-02-01T19:51:23;22.23;;;17.30;;
6941;SDS011;3510;43.200;27.920;2023-02-01T19:53:50;20.17;;;15.73;;
6941;SDS011;3510;43.200;27.920;2023-02-01T19:56:21;20.17;;;15.47;;
6941;SDS011;3510;43.200;27.920;2023-02-01T19:58:49;19.97;;;16.03;;
6941;SDS011;3510;43.200;27.920;2023-02-01T20:01:16;23.43;;;17.67;;
6941;SDS011;3510;43.200;27.920;2023-02-01T20:03:44;24.40;;;19.67;;
6941;SDS011;3510;43.200;27.920;2023-02-01T20:06:10;29.57;;;20.73;;
6941;SDS011;3510;43.200;27.920;2023-02-01T20:08:38;34.07;;;20.53;;
6941;SDS011;3510;43.200;27.920;2023-02-01T20:11:05;30.07;;;21.83;;
6941;SDS011;3510;43.200;27.920;2023-02-01T20:13:34;34.03;;;21.77;;
6941;SDS011;3510;43.200;27.920;2023-02-01T20:16:03;31.73;;;22.73;;
6941;SDS011;3510;43.200;27.920;2023-02-01T20:18:31;33.43;;;22.33;;
6941;SDS011;3510;43.200;27.920;2023-02-01T20:23:27;37.30;;;23.70;;
6941;SDS011;3510;43.200;27.920;2023-02-01T20:25:59;43.53;;;29.67;;
6941;SDS011;3510;43.200;27.920;2023-02-01T20:28:27;45.22;;;33.10;;
6941;SDS011;3510;43.200;27.920;2023-02-01T20:30:55;63.35;;;44.00;;
6941;SDS011;3510;43.200;27.920;2023-02-01T20:33:22;59.45;;;42.72;;
6941;SDS011;3510;43.200;27.920;2023-02-01T20:35:51;50.13;;;38.58;;
6941;SDS011;3510;43.200;27.920;2023-02-01T20:38:19;53.90;;;36.38;;
6941;SDS011;3510;43.200;27.920;2023-02-01T20:40:46;44.40;;;34.17;;
6941;SDS011;3510;43.200;27.920;2023-02-01T20:43:14;48.92;;;35.13;;
6941;SDS011;3510;43.200;27.920;2023-02-01T20:45:42;46.55;;;33.85;;
6941;SDS011;3510;43.200;27.920;2023-02-01T20:48:11;42.17;;;30.37;;
6941;SDS011;3510;43.200;27.920;2023-02-01T20:50:38;35.85;;;26.75;;
6941;SDS011;3510;43.200;27.920;2023-02-01T20:53:05;35.65;;;26.95;;
6941;SDS011;3510;43.200;27.920;2023-02-01T20:55:32;33.78;;;25.30;;
6941;SDS011;3510;43.200;27.920;2023-02-01T20:57:59;31.63;;;23.83;;
6941;SDS011;3510;43.200;27.920;2023-02-01T21:00:26;34.90;;;23.15;;
6941;SDS011;3510;43.200;27.920;2023-02-01T21:02:55;28.73;;;23.05;;
6941;SDS011;3510;43.200;27.920;2023-02-01T21:05:24;28.27;;;21.13;;
6941;SDS011;3510;43.200;27.920;2023-02-01T21:08:04;24.35;;;19.08;;
6941;SDS011;3510;43.200;27.920;2023-02-01T21:10:32;30.30;;;21.10;;
6941;SDS011;3510;43.200;27.920;2023-02-01T21:12:59;25.45;;;18.95;;
6941;SDS011;3510;43.200;27.920;2023-02-01T21:15:26;23.23;;;18.52;;
6941;SDS011;3510;43.200;27.920;2023-02-01T21:17:58;25.20;;;18.15;;
6941;SDS011;3510;43.200;27.920;2023-02-01T21:20:27;22.67;;;18.07;;
6941;SDS011;3510;43.200;27.920;2023-02-01T21:22:54;23.53;;;18.27;;
6941;SDS011;3510;43.200;27.920;2023-02-01T21:25:22;26.88;;;19.67;;
6941;SDS011;3510;43.200;27.920;2023-02-01T21:27:49;26.35;;;19.17;;
6941;SDS011;3510;43.200;27.920;2023-02-01T21:30:16;25.98;;;20.73;;
6941;SDS011;3510;43.200;27.920;2023-02-01T21:32:43;26.60;;;19.83;;
6941;SDS011;3510;43.200;27.920;2023-02-01T21:35:14;25.48;;;20.13;;
6941;SDS011;3510;43.200;27.920;2023-02-01T21:44:08;26.05;;;19.98;;
6941;SDS011;3510;43.200;27.920;2023-02-01T21:46:38;23.63;;;18.40;;
6941;SDS011;3510;43.200;27.920;2023-02-01T21:49:05;25.52;;;18.20;;
6941;SDS011;3510;43.200;27.920;2023-02-01T21:51:47;24.53;;;18.33;;
6941;SDS011;3510;43.200;27.920;2023-02-01T21:54:28;25.02;;;17.20;;
6941;SDS011;3510;43.200;27.920;2023-02-01T21:56:55;24.48;;;17.10;;
6941;SDS011;3510;43.200;27.920;2023-02-01T22:15:18;29.80;;;22.25;;
6941;SDS011;3510;43.200;27.920;2023-02-01T22:17:45;30.30;;;22.40;;
6941;SDS011;3510;43.200;27.920;2023-02-01T22:20:13;31.00;;;23.40;;
6941;SDS011;3510;43.200;27.920;2023-02-01T22:22:40;28.92;;;21.98;;
6941;SDS011;3510;43.200;27.920;2023-02-01T22:25:07;30.23;;;20.90;;
6941;SDS011;3510;43.200;27.920;2023-02-01T22:27:34;26.38;;;19.52;;
6941;SDS011;3510;43.200;27.920;2023-02-01T22:30:02;24.07;;;19.00;;
